Time;durP1;ratioP1;P1;durP2;ratioP2;P2;SDS_P1;SDS_P2;PMS_P1;PMS_P2;Temp;Humidity;BMP_temperature;BMP_pressure;BME280_temperature;BME280_humidity;BME280_pressure;Samples;Min_cycle;Max_cycle;Signal;HPM_P1;HPM_P2
2020/01/02 00:00:54;;;;;;;11.09;9.89;;;;;;;18.75;38.39;102025.36;;;;-49
2020/01/02 00:03:54;;;;;;;10.85;9.75;;;;;;;18.74;38.38;102023.20;;;;-48
2020/01/02 00:06:54;;;;;;;11.88;10.15;;;;;;;18.73;38.41;102015.27;;;;-48
2020/01/02 00:09:54;;;;;;;11.33;10.13;;;;;;;18.71;38.40;102014.90;;;;-48
2020/01/02 00:12:54;;;;;;;11.63;10.29;;;;;;;18.69;38.35;102013.94;;;;-48
2020/01/02 00:20:54;;;;;;;11.01;9.81;;;;;;;18.65;38.40;102015.04;;;;-48
2020/01/02 00:23:54;;;;;;;10.89;9.74;;;;;;;18.63;38.28;102013.76;;;;-48
2020/01/02 00:26:54;;;;;;;11.69;10.17;;;;;;;18.62;38.41;102012.46;;;;-48
2020/01/02 00:29:54;;;;;;;11.33;10.03;;;;;;;18.60;38.44;102018.97;;;;-48
2020/01/02 00:32:54;;;;;;;11.24;9.95;;;;;;;18.59;38.48;102014.42;;;;-48
2020/01/02 00:35:54;;;;;;;10.90;9.81;;;;;;;18.58;38.50;102016.97;;;;-49
2020/01/02 00:38:54;;;;;;;11.55;10.30;;;;;;;18.57;38.47;102016.05;;;;-48
2020/01/02 00:41:54;;;;;;;11.43;10.12;;;;;;;18.55;38.48;102016.52;;;;-59
2020/01/02 00:44:54;;;;;;;10.67;9.55;;;;;;;18.53;38.49;102015.59;;;;-59
2020/01/02 00:47:54;;;;;;;11.01;9.81;;;;;;;18.52;38.53;102016.75;;;;-59
2020/01/02 00:50:54;;;;;;;11.31;9.93;;;;;;;18.51;38.49;102018.80;;;;-59
2020/01/02 00:53:54;;;;;;;10.70;9.60;;;;;;;18.49;38.44;102017.92;;;;-59
2020/01/02 00:56:54;;;;;;;10.31;9.21;;;;;;;18.48;38.49;102020.08;;;;-59
2020/01/02 00:59:54;;;;;;;10.53;9.40;;;;;;;18.46;38.46;102018.27;;;;-58
2020/01/02 01:02:54;;;;;;;10.54;9.39;;;;;;;18.46;38.50;102022.72;;;;-59
2020/01/02 01:05:54;;;;;;;11.18;9.95;;;;;;;18.44;38.57;102026.07;;;;-59
2020/01/02 01:08:54;;;;;;;11.07;9.81;;;;;;;18.43;38.51;102027.69;;;;-59
2020/01/02 01:11:54;;;;;;;12.11;9.79;;;;;;;18.41;38.49;102025.18;;;;-58
2020/01/02 01:14:54;;;;;;;10.85;9.67;;;;;;;18.40;38.47;102027.97;;;;-59
2020/01/02 01:17:54;;;;;;;10.59;9.30;;;;;;;18.40;38.51;102032.38;;;;-59
2020/01/02 01:20:54;;;;;;;10.63;9.33;;;;;;;18.38;38.53;102037.17;;;;-59
2020/01/02 01:23:54;;;;;;;10.55;9.45;;;;;;;18.37;38.52;102043.67;;;;-58
2020/01/02 01:26:54;;;;;;;11.12;9.71;;;;;;;18.35;38.54;102041.41;;;;-58
2020/01/02 01:29:54;;;;;;;10.73;9.41;;;;;;;18.35;38.70;102044.36;;;;-59
2020/01/02 01:32:54;;;;;;;10.71;9.50;;;;;;;18.33;38.52;102047.89;;;;-59
2020/01/02 01:35:54;;;;;;;10.62;9.47;;;;;;;18.32;38.57;102043.92;;;;-58
2020/01/02 01:38:54;;;;;;;10.63;9.34;;;;;;;18.30;38.50;102045.88;;;;-59
2020/01/02 01:41:54;;;;;;;10.01;8.96;;;;;;;18.29;38.53;102045.14;;;;-59
2020/01/02 01:44:54;;;;;;;10.23;9.09;;;;;;;18.29;38.52;102041.85;;;;-52
2020/01/02 01:47:54;;;;;;;9.99;8.94;;;;;;;18.27;38.53;102038.92;;;;-53
2020/01/02 01:50:54;;;;;;;11.89;9.85;;;;;;;18.26;38.50;102035.83;;;;-52
2020/01/02 01:53:54;;;;;;;11.10;9.69;;;;;;;18.25;38.61;102034.70;;;;-52
2020/01/02 01:56:54;;;;;;;10.71;9.52;;;;;;;18.23;38.54;102031.61;;;;-52
2020/01/02 01:59:54;;;;;;;10.86;9.44;;;;;;;18.21;38.61;102031.91;;;;-52
2020/01/02 02:02:54;;;;;;;10.23;9.14;;;;;;;18.21;38.52;102034.75;;;;-52
2020/01/02 02:05:54;;;;;;;10.83;9.40;;;;;;;18.20;38.53;102028.86;;;;-53
2020/01/02 02:08:54;;;;;;;10.78;9.66;;;;;;;18.18;38.50;102029.91;;;;-53
2020/01/02 02:11:54;;;;;;;10.69;9.59;;;;;;;18.17;38.77;102027.20;;;;-52
2020/01/02 02:14:54;;;;;;;10.23;9.11;;;;;;;18.17;38.63;102024.48;;;;-52
2020/01/02 02:17:54;;;;;;;11.01;9.47;;;;;;;18.15;38.53;102028.94;;;;-53
2020/01/02 02:20:54;;;;;;;10.15;9.08;;;;;;;18.14;38.53;102026.58;;;;-53
2020/01/02 02:23:54;;;;;;;10.53;9.43;;;;;;;18.12;38.60;102030.29;;;;-52
2020/01/02 02:26:54;;;;;;;10.54;9.41;;;;;;;18.12;38.67;102030.22;;;;-53
2020/01/02 02:29:54;;;;;;;9.96;8.80;;;;;;;18.11;38.52;102028.04;;;;-52
2020/01/02 02:32:54;;;;;;;11.09;9.37;;;;;;;18.10;38.60;102027.55;;;;-52
2020/01/02 02:36:12;;;;;;;10.33;9.18;;;;;;;18.08;38.60;102020.22;;;;-52
2020/01/02 02:39:00;;;;;;;11.27;9.37;;;;;;;18.08;38.62;102021.72;;;;-52
2020/01/02 02:42:08;;;;;;;10.52;9.42;;;;;;;18.06;38.63;102020.59;;;;-52
2020/01/02 02:44:57;;;;;;;10.79;9.40;;;;;;;18.06;38.66;102019.90;;;;-53
2020/01/02 02:47:57;;;;;;;10.67;9.41;;;;;;;18.05;38.60;102020.17;;;;-52
2020/01/02 02:50:54;;;;;;;10.03;8.94;;;;;;;18.03;38.57;102011.26;;;;-53
2020/01/02 02:53:54;;;;;;;11.01;9.63;;;;;;;18.03;38.64;102008.20;;;;-52
2020/01/02 02:56:54;;;;;;;10.61;9.19;;;;;;;18.02;38.68;102004.94;;;;-52
2020/01/02 02:59:54;;;;;;;11.77;9.67;;;;;;;18.01;38.63;101994.22;;;;-53
2020/01/02 03:02:54;;;;;;;10.09;8.93;;;;;;;18.00;38.66;101993.59;;;;-52
2020/01/02 03:05:54;;;;;;;10.37;9.21;;;;;;;17.99;38.67;101990.17;;;;-52
2020/01/02 03:08:54;;;;;;;10.68;9.05;;;;;;;17.99;38.72;101991.60;;;;-53
2020/01/02 03:11:54;;;;;;;10.95;9.59;;;;;;;17.97;38.68;101990.13;;;;-53
2020/01/02 03:14:54;;;;;;;10.47;9.22;;;;;;;17.96;38.69;101989.72;;;;-52
2020/01/02 03:17:54;;;;;;;10.95;9.44;;;;;;;17.94;38.70;101986.73;;;;-52
2020/01/02 03:20:54;;;;;;;10.49;9.28;;;;;;;17.94;38.76;101993.09;;;;-52
2020/01/02 03:23:54;;;;;;;10.47;8.97;;;;;;;17.93;38.66;101996.63;;;;-53
2020/01/02 03:26:54;;;;;;;10.33;9.08;;;;;;;17.92;38.63;101992.55;;;;-52
2020/01/02 03:29:54;;;;;;;10.81;8.99;;;;;;;17.91;38.70;101988.44;;;;-52
2020/01/02 03:32:54;;;;;;;12.23;9.79;;;;;;;17.90;38.72;101988.38;;;;-52
2020/01/02 03:35:54;;;;;;;10.11;8.93;;;;;;;17.90;38.74;101989.75;;;;-52
2020/01/02 03:38:54;;;;;;;10.71;9.21;;;;;;;17.88;38.82;101984.78;;;;-52
2020/01/02 03:41:54;;;;;;;10.90;9.27;;;;;;;17.88;38.73;101986.37;;;;-52
2020/01/02 03:44:54;;;;;;;10.79;9.03;;;;;;;17.88;38.77;101986.26;;;;-52
2020/01/02 03:47:54;;;;;;;10.70;9.11;;;;;;;17.87;38.69;101985.65;;;;-53
2020/01/02 03:50:54;;;;;;;10.54;8.81;;;;;;;17.86;38.78;101977.87;;;;-52
2020/01/02 03:53:54;;;;;;;11.01;9.51;;;;;;;17.86;38.78;101980.95;;;;-52
2020/01/02 03:56:54;;;;;;;10.51;8.97;;;;;;;17.84;38.80;101978.77;;;;-53
2020/01/02 03:59:54;;;;;;;11.23;9.19;;;;;;;17.82;38.79;101978.59;;;;-52
2020/01/02 04:02:54;;;;;;;10.42;9.01;;;;;;;17.81;38.82;101973.31;;;;-52
2020/01/02 04:05:54;;;;;;;10.75;8.91;;;;;;;17.81;38.74;101975.26;;;;-53
2020/01/02 04:08:54;;;;;;;10.87;9.00;;;;;;;17.80;38.81;101981.78;;;;-53
2020/01/02 04:11:53;;;;;;;11.21;9.45;;;;;;;17.81;38.76;101980.22;;;;-53
2020/01/02 04:14:54;;;;;;;10.81;9.09;;;;;;;17.78;38.81;101982.96;;;;-52
2020/01/02 04:17:54;;;;;;;10.94;9.24;;;;;;;17.78;38.82;101989.91;;;;-52
2020/01/02 04:20:54;;;;;;;10.60;8.86;;;;;;;17.77;38.73;101986.88;;;;-52
2020/01/02 04:23:54;;;;;;;11.49;9.14;;;;;;;17.76;38.85;101985.47;;;;-52
2020/01/02 04:26:54;;;;;;;10.41;8.91;;;;;;;17.75;38.86;101972.08;;;;-53
2020/01/02 04:29:53;;;;;;;10.35;8.89;;;;;;;17.75;38.82;101975.03;;;;-52
2020/01/02 04:32:54;;;;;;;10.30;8.74;;;;;;;17.74;38.76;101975.01;;;;-53
2020/01/02 04:35:54;;;;;;;10.42;8.68;;;;;;;17.71;38.86;101968.48;;;;-53
2020/01/02 04:38:54;;;;;;;10.21;8.72;;;;;;;17.74;38.71;101970.55;;;;-52
2020/01/02 04:42:09;;;;;;;10.19;8.73;;;;;;;17.74;38.73;101964.31;;;;-52
2020/01/02 04:44:57;;;;;;;10.08;8.72;;;;;;;17.74;38.79;101963.03;;;;-52
2020/01/02 04:47:54;;;;;;;10.05;8.61;;;;;;;17.76;38.77;101961.45;;;;-52
2020/01/02 04:50:54;;;;;;;10.01;8.54;;;;;;;17.78;38.83;101961.00;;;;-52
2020/01/02 04:53:54;;;;;;;9.47;8.45;;;;;;;17.79;38.77;101957.47;;;;-52
2020/01/02 04:56:54;;;;;;;10.53;8.77;;;;;;;17.82;38.71;101962.97;;;;-53
2020/01/02 04:59:54;;;;;;;10.59;8.60;;;;;;;17.85;38.69;101961.66;;;;-52
2020/01/02 05:02:54;;;;;;;11.07;9.07;;;;;;;17.88;38.86;101966.66;;;;-53
2020/01/02 05:05:54;;;;;;;10.04;8.47;;;;;;;17.90;38.94;101967.55;;;;-53
2020/01/02 05:08:54;;;;;;;9.01;7.86;;;;;;;17.93;39.08;101964.54;;;;-53
2020/01/02 05:11:54;;;;;;;10.46;8.63;;;;;;;17.96;39.12;101962.53;;;;-52
2020/01/02 05:14:54;;;;;;;10.20;8.51;;;;;;;18.00;39.13;101958.58;;;;-53
2020/01/02 05:17:54;;;;;;;8.93;7.66;;;;;;;18.04;39.08;101956.00;;;;-52
2020/01/02 05:20:54;;;;;;;9.25;8.23;;;;;;;18.08;39.04;101952.67;;;;-53
2020/01/02 05:23:54;;;;;;;9.38;7.89;;;;;;;18.14;38.95;101951.11;;;;-53
2020/01/02 05:26:54;;;;;;;9.39;8.21;;;;;;;18.17;39.04;101950.73;;;;-53
2020/01/02 05:29:53;;;;;;;9.59;8.41;;;;;;;18.21;38.97;101949.36;;;;-53
2020/01/02 05:32:54;;;;;;;9.62;7.92;;;;;;;18.27;39.02;101952.78;;;;-53
2020/01/02 05:35:54;;;;;;;9.73;8.31;;;;;;;18.30;39.06;101953.34;;;;-53
2020/01/02 05:38:54;;;;;;;8.78;7.81;;;;;;;18.34;39.03;101949.23;;;;-53
2020/01/02 05:41:54;;;;;;;10.21;8.31;;;;;;;18.38;39.06;101951.75;;;;-54
2020/01/02 05:44:54;;;;;;;9.88;8.10;;;;;;;18.41;39.03;101948.97;;;;-53
2020/01/02 05:47:53;;;;;;;9.24;8.03;;;;;;;18.46;39.03;101947.42;;;;-53
2020/01/02 05:50:53;;;;;;;10.77;8.73;;;;;;;18.51;39.08;101947.34;;;;-53
2020/01/02 05:53:54;;;;;;;9.58;8.26;;;;;;;18.53;39.08;101950.01;;;;-53
2020/01/02 05:56:54;;;;;;;8.73;7.80;;;;;;;18.56;39.10;101952.34;;;;-53
2020/01/02 05:59:54;;;;;;;10.75;8.15;;;;;;;18.60;39.00;101953.91;;;;-52
2020/01/02 06:02:54;;;;;;;9.23;8.00;;;;;;;18.63;39.08;101952.18;;;;-53
2020/01/02 06:05:54;;;;;;;9.15;8.04;;;;;;;18.66;39.05;101952.19;;;;-53
2020/01/02 06:08:54;;;;;;;9.37;7.92;;;;;;;18.70;39.00;101954.27;;;;-53
2020/01/02 06:11:54;;;;;;;9.56;8.09;;;;;;;18.72;39.05;101960.27;;;;-53
2020/01/02 06:14:54;;;;;;;9.15;7.93;;;;;;;18.74;39.03;101959.45;;;;-53
2020/01/02 06:17:54;;;;;;;8.80;7.60;;;;;;;18.77;39.08;101963.08;;;;-53
2020/01/02 06:20:54;;;;;;;9.51;7.89;;;;;;;18.80;38.99;101963.91;;;;-53
2020/01/02 06:23:54;;;;;;;8.86;7.81;;;;;;;18.84;39.02;101964.80;;;;-53
2020/01/02 06:26:53;;;;;;;9.25;7.89;;;;;;;18.86;38.97;101963.38;;;;-54
2020/01/02 06:29:53;;;;;;;9.25;8.03;;;;;;;18.88;38.90;101968.56;;;;-53
2020/01/02 06:32:54;;;;;;;9.33;7.89;;;;;;;18.91;38.92;101971.10;;;;-54
2020/01/02 06:36:01;;;;;;;8.76;7.35;;;;;;;18.94;38.95;101973.83;;;;-52
2020/01/02 06:38:54;;;;;;;8.74;7.68;;;;;;;18.97;38.83;101976.61;;;;-54
2020/01/02 06:42:27;;;;;;;14.27;9.77;;;;;;;18.82;36.83;101976.55;;;;-49
2020/01/02 06:45:03;;;;;;;17.54;13.17;;;;;;;18.41;35.35;101975.55;;;;-48
2020/01/02 06:47:54;;;;;;;17.95;13.77;;;;;;;18.16;34.38;101976.08;;;;-48
2020/01/02 06:50:54;;;;;;;20.35;15.17;;;;;;;17.87;33.92;101985.02;;;;-49
2020/01/02 06:53:54;;;;;;;19.81;14.47;;;;;;;17.92;34.73;101988.09;;;;-51
2020/01/02 06:56:54;;;;;;;17.24;12.43;;;;;;;18.13;35.78;101986.16;;;;-51
2020/01/02 06:59:54;;;;;;;15.59;11.63;;;;;;;18.28;35.95;101987.98;;;;-51
2020/01/02 07:02:53;;;;;;;15.56;11.65;;;;;;;18.39;36.07;101992.02;;;;-52
2020/01/02 07:05:53;;;;;;;15.37;11.28;;;;;;;18.47;36.23;101988.56;;;;-51
2020/01/02 07:08:54;;;;;;;13.26;10.51;;;;;;;18.55;36.37;101994.94;;;;-52
2020/01/02 07:12:54;;;;;;;13.63;10.13;;;;;;;18.62;36.51;101994.27;;;;-52
2020/01/02 07:15:54;;;;;;;12.91;10.01;;;;;;;18.68;36.62;101997.50;;;;-51
2020/01/02 07:20:53;;;;;;;11.31;9.01;;;;;;;18.75;36.74;102003.70;;;;-51
2020/01/02 07:23:53;;;;;;;11.85;9.56;;;;;;;18.79;36.79;102004.06;;;;-52
2020/01/02 07:26:54;;;;;;;11.39;8.97;;;;;;;18.83;36.91;102005.91;;;;-51
2020/01/02 07:29:54;;;;;;;12.00;9.23;;;;;;;18.85;36.92;102005.88;;;;-51
2020/01/02 07:32:54;;;;;;;11.35;9.02;;;;;;;18.88;36.96;102004.05;;;;-51
2020/01/02 07:35:54;;;;;;;9.61;8.15;;;;;;;18.91;37.06;102003.14;;;;-51
2020/01/02 07:38:53;;;;;;;9.73;8.41;;;;;;;18.92;37.11;102007.52;;;;-51
2020/01/02 07:41:53;;;;;;;10.08;8.29;;;;;;;18.95;37.17;102012.23;;;;-51
2020/01/02 07:44:54;;;;;;;9.62;8.11;;;;;;;18.97;37.15;102007.09;;;;-51
2020/01/02 07:47:54;;;;;;;9.33;8.03;;;;;;;18.99;37.18;102003.33;;;;-51
2020/01/02 07:50:54;;;;;;;9.78;8.13;;;;;;;19.01;37.22;102006.55;;;;-52
2020/01/02 07:53:54;;;;;;;10.22;8.11;;;;;;;19.02;37.27;102008.45;;;;-51
2020/01/02 07:56:53;;;;;;;8.89;7.61;;;;;;;19.04;37.32;102010.16;;;;-51
2020/01/02 07:59:53;;;;;;;8.96;7.67;;;;;;;19.06;37.33;102010.52;;;;-51
2020/01/02 08:02:53;;;;;;;9.91;8.08;;;;;;;19.07;37.34;102007.86;;;;-51
2020/01/02 08:05:54;;;;;;;9.17;7.26;;;;;;;19.09;37.34;102007.78;;;;-57
2020/01/02 08:08:54;;;;;;;9.31;7.65;;;;;;;19.10;37.33;102007.34;;;;-57
2020/01/02 08:11:54;;;;;;;8.83;7.39;;;;;;;19.11;37.43;102004.55;;;;-57
2020/01/02 08:14:53;;;;;;;9.01;7.55;;;;;;;19.11;37.40;102004.91;;;;-57
2020/01/02 08:17:53;;;;;;;8.71;7.42;;;;;;;19.13;37.43;102003.41;;;;-57
2020/01/02 08:20:54;;;;;;;8.53;7.12;;;;;;;19.14;37.46;102002.47;;;;-57
2020/01/02 08:23:54;;;;;;;9.18;7.19;;;;;;;19.14;37.46;102003.75;;;;-57
2020/01/02 08:26:54;;;;;;;8.75;7.23;;;;;;;19.15;37.45;102004.00;;;;-58
2020/01/02 08:29:54;;;;;;;8.88;7.35;;;;;;;19.15;37.44;102006.68;;;;-57
2020/01/02 08:32:54;;;;;;;7.74;6.67;;;;;;;19.16;37.40;102009.27;;;;-58
2020/01/02 08:35:53;;;;;;;8.55;7.13;;;;;;;19.15;37.43;102010.36;;;;-57
2020/01/02 08:38:54;;;;;;;8.70;7.17;;;;;;;19.15;37.53;102010.25;;;;-51
2020/01/02 08:41:54;;;;;;;8.35;7.04;;;;;;;19.17;37.37;102012.13;;;;-58
2020/01/02 08:44:54;;;;;;;8.29;6.92;;;;;;;19.17;37.44;102015.70;;;;-58
2020/01/02 08:47:54;;;;;;;8.49;7.13;;;;;;;19.16;37.42;102016.46;;;;-57
2020/01/02 08:50:53;;;;;;;8.22;7.09;;;;;;;19.17;37.43;102024.13;;;;-57
2020/01/02 08:53:53;;;;;;;8.41;6.93;;;;;;;19.18;37.49;102029.61;;;;-57
2020/01/02 08:56:53;;;;;;;8.06;7.00;;;;;;;19.18;37.54;102033.41;;;;-57
2020/01/02 08:59:54;;;;;;;8.02;7.02;;;;;;;19.18;37.51;102038.16;;;;-56
2020/01/02 09:02:54;;;;;;;8.52;7.05;;;;;;;19.19;37.62;102040.91;;;;-48
2020/01/02 09:05:54;;;;;;;8.33;6.81;;;;;;;19.19;37.50;102041.52;;;;-48
2020/01/02 09:08:54;;;;;;;8.21;6.77;;;;;;;19.19;37.51;102044.20;;;;-48
2020/01/02 09:11:53;;;;;;;8.27;6.87;;;;;;;19.20;37.40;102040.81;;;;-48
2020/01/02 09:14:53;;;;;;;7.91;6.78;;;;;;;19.20;37.55;102039.30;;;;-48
2020/01/02 09:17:54;;;;;;;8.05;6.75;;;;;;;19.20;37.66;102043.66;;;;-48
2020/01/02 09:20:54;;;;;;;8.32;7.07;;;;;;;19.20;37.56;102040.48;;;;-48
2020/01/02 09:23:54;;;;;;;8.24;6.63;;;;;;;19.22;37.52;102032.18;;;;-48
2020/01/02 09:34:02;;;;;;;8.32;6.91;;;;;;;19.23;37.56;102025.61;;;;-58
2020/01/02 09:36:54;;;;;;;8.23;6.91;;;;;;;19.24;37.51;102033.41;;;;-57
2020/01/02 09:39:54;;;;;;;8.81;6.81;;;;;;;19.24;37.54;102042.06;;;;-57
2020/01/02 09:42:54;;;;;;;7.77;6.73;;;;;;;19.25;37.56;102041.83;;;;-58
2020/01/02 09:45:53;;;;;;;7.93;6.82;;;;;;;19.25;37.55;102046.69;;;;-57
2020/01/02 09:48:53;;;;;;;14.51;7.14;;;;;;;19.29;38.09;102040.84;;;;-55
2020/01/02 09:51:54;;;;;;;7.69;6.43;;;;;;;19.31;38.46;102046.11;;;;-58
2020/01/02 09:54:54;;;;;;;10.08;6.67;;;;;;;19.32;38.72;102035.87;;;;-58
2020/01/02 09:57:54;;;;;;;8.53;6.68;;;;;;;19.35;38.56;102039.19;;;;-58
2020/01/02 10:00:54;;;;;;;8.53;6.69;;;;;;;19.38;38.17;102033.83;;;;-60
2020/01/02 10:03:53;;;;;;;12.81;7.20;;;;;;;19.39;38.68;102027.59;;;;-59
2020/01/02 10:06:54;;;;;;;14.93;7.56;;;;;;;19.40;37.69;102028.61;;;;-58
2020/01/02 10:09:54;;;;;;;11.69;7.70;;;;;;;19.44;37.82;102025.88;;;;-52
2020/01/02 10:12:54;;;;;;;15.09;7.63;;;;;;;19.47;38.53;102022.45;;;;-57
2020/01/02 10:15:54;;;;;;;14.63;8.15;;;;;;;19.46;37.55;102018.64;;;;-55
2020/01/02 10:18:54;;;;;;;11.62;7.79;;;;;;;19.48;37.50;102015.38;;;;-57
2020/01/02 10:21:53;;;;;;;10.61;7.65;;;;;;;19.50;37.98;102011.09;;;;-57
2020/01/02 10:24:53;;;;;;;10.61;7.31;;;;;;;19.51;38.16;102008.70;;;;-57
2020/01/02 10:27:54;;;;;;;13.41;6.85;;;;;;;19.52;38.39;102002.98;;;;-55
2020/01/02 10:30:53;;;;;;;11.93;7.23;;;;;;;19.56;38.66;102001.23;;;;-57
2020/01/02 10:33:54;;;;;;;11.31;7.19;;;;;;;19.58;38.72;101998.46;;;;-59
2020/01/02 10:36:54;;;;;;;17.54;7.81;;;;;;;19.63;38.82;101995.47;;;;-56
2020/01/02 10:39:53;;;;;;;11.22;7.61;;;;;;;19.64;38.26;101991.39;;;;-58
2020/01/02 10:42:53;;;;;;;12.54;7.47;;;;;;;19.63;38.40;101989.38;;;;-55
2020/01/02 10:45:53;;;;;;;11.29;7.22;;;;;;;19.63;38.46;101990.44;;;;-54
2020/01/02 10:48:54;;;;;;;8.28;6.53;;;;;;;19.64;38.56;101992.52;;;;-52
2020/01/02 10:51:54;;;;;;;14.73;7.39;;;;;;;19.66;38.57;101986.58;;;;-49
2020/01/02 10:54:54;;;;;;;14.10;7.21;;;;;;;19.70;38.90;101986.34;;;;-50
2020/01/02 10:57:53;;;;;;;9.10;6.85;;;;;;;19.71;38.68;101974.78;;;;-50
2020/01/02 11:00:53;;;;;;;12.45;6.76;;;;;;;19.72;38.68;101974.08;;;;-50
2020/01/02 11:03:53;;;;;;;9.91;6.83;;;;;;;19.75;38.61;101972.27;;;;-51
2020/01/02 11:06:53;;;;;;;9.26;6.87;;;;;;;19.72;38.28;101964.12;;;;-51
2020/01/02 11:09:54;;;;;;;10.73;7.43;;;;;;;19.71;37.83;101965.00;;;;-51
2020/01/02 11:12:54;;;;;;;9.82;6.95;;;;;;;19.75;38.36;101957.17;;;;-49
2020/01/02 11:15:53;;;;;;;11.44;7.26;;;;;;;19.78;37.94;101947.66;;;;-53
2020/01/02 11:18:53;;;;;;;13.00;7.71;;;;;;;19.71;37.08;101941.82;;;;-48
2020/01/02 11:21:53;;;;;;;12.98;8.56;;;;;;;19.67;35.94;101942.27;;;;-48
2020/01/02 11:24:54;;;;;;;14.19;8.12;;;;;;;19.70;36.24;101942.03;;;;-50
2020/01/02 11:27:54;;;;;;;12.56;7.81;;;;;;;19.70;36.65;101931.80;;;;-51
2020/01/02 11:31:00;;;;;;;12.12;7.31;;;;;;;19.71;37.22;101925.79;;;;-49
2020/01/02 11:37:06;;;;;;;10.27;7.15;;;;;;;19.73;37.56;101913.45;;;;-51
2020/01/02 11:39:53;;;;;;;10.09;7.15;;;;;;;19.75;37.81;101907.68;;;;-49
2020/01/02 11:42:54;;;;;;;9.45;7.20;;;;;;;19.75;37.81;101904.14;;;;-51
2020/01/02 11:45:53;;;;;;;10.27;7.11;;;;;;;19.75;37.61;101899.47;;;;-50
2020/01/02 11:48:54;;;;;;;10.54;6.56;;;;;;;19.73;37.55;101889.61;;;;-50
2020/01/02 11:51:53;;;;;;;10.77;6.99;;;;;;;19.72;37.51;101886.45;;;;-50
2020/01/02 11:54:53;;;;;;;16.63;7.17;;;;;;;19.73;37.76;101886.69;;;;-49
2020/01/02 11:57:53;;;;;;;13.37;7.11;;;;;;;19.71;37.57;101877.17;;;;-49
2020/01/02 12:00:54;;;;;;;10.12;6.42;;;;;;;19.70;37.50;101871.25;;;;-45
2020/01/02 12:03:54;;;;;;;8.69;6.64;;;;;;;19.67;37.49;101869.70;;;;-46
2020/01/02 12:06:54;;;;;;;9.25;6.40;;;;;;;19.67;37.55;101871.43;;;;-44
2020/01/02 12:09:54;;;;;;;9.83;6.67;;;;;;;19.65;37.50;101864.26;;;;-45
2020/01/02 12:12:54;;;;;;;8.68;6.55;;;;;;;19.65;37.48;101858.56;;;;-45
2020/01/02 12:15:54;;;;;;;9.11;6.11;;;;;;;19.64;37.49;101856.76;;;;-45
2020/01/02 12:18:54;;;;;;;8.45;6.51;;;;;;;19.64;37.52;101850.77;;;;-46
2020/01/02 12:21:54;;;;;;;8.90;6.37;;;;;;;19.63;37.53;101853.34;;;;-47
2020/01/02 12:26:54;;;;;;;8.37;6.63;;;;;;;19.61;37.47;101847.30;;;;-44
2020/01/02 12:29:55;;;;;;;7.77;6.47;;;;;;;19.61;37.51;101842.94;;;;-44
2020/01/02 12:32:54;;;;;;;7.70;6.26;;;;;;;19.59;37.51;101840.00;;;;-44
2020/01/02 12:35:54;;;;;;;8.60;6.08;;;;;;;19.60;37.51;101840.28;;;;-44
2020/01/02 12:38:54;;;;;;;8.79;6.39;;;;;;;19.59;37.59;101830.94;;;;-44
2020/01/02 12:41:54;;;;;;;16.48;6.38;;;;;;;19.59;37.56;101820.21;;;;-44
2020/01/02 12:44:54;;;;;;;7.38;6.06;;;;;;;19.57;37.61;101816.24;;;;-44
2020/01/02 12:47:54;;;;;;;7.85;5.51;;;;;;;19.57;37.52;101813.95;;;;-44
2020/01/02 12:50:54;;;;;;;8.29;6.03;;;;;;;19.57;37.57;101814.91;;;;-46
2020/01/02 12:53:54;;;;;;;7.11;6.07;;;;;;;19.57;37.59;101809.08;;;;-44
2020/01/02 12:56:54;;;;;;;8.41;5.86;;;;;;;19.57;37.57;101811.37;;;;-44
2020/01/02 12:59:54;;;;;;;7.39;5.97;;;;;;;19.58;37.59;101805.29;;;;-44
2020/01/02 13:02:54;;;;;;;8.19;6.14;;;;;;;19.58;37.61;101798.88;;;;-46
2020/01/02 13:05:53;;;;;;;8.21;5.91;;;;;;;19.62;38.48;101801.86;;;;-46
2020/01/02 13:08:54;;;;;;;9.15;6.26;;;;;;;19.62;38.27;101791.60;;;;-44
2020/01/02 13:11:53;;;;;;;14.61;6.28;;;;;;;19.70;40.04;101799.45;;;;-48
2020/01/02 13:14:53;;;;;;;17.65;6.71;;;;;;;19.72;38.87;101795.59;;;;-57
2020/01/02 13:17:53;;;;;;;10.77;6.73;;;;;;;19.78;39.23;101789.59;;;;-50
2020/01/02 13:20:54;;;;;;;10.48;6.29;;;;;;;19.78;39.03;101793.44;;;;-52
2020/01/02 13:23:54;;;;;;;15.20;6.55;;;;;;;19.80;38.77;101786.47;;;;-51
2020/01/02 13:26:54;;;;;;;10.93;6.53;;;;;;;19.80;38.59;101781.25;;;;-50
2020/01/02 13:29:53;;;;;;;10.91;6.17;;;;;;;19.79;38.51;101776.72;;;;-50
2020/01/02 13:32:53;;;;;;;10.32;5.89;;;;;;;19.78;38.65;101775.78;;;;-47
2020/01/02 13:35:53;;;;;;;8.58;6.11;;;;;;;19.79;38.65;101779.42;;;;-49
2020/01/02 13:38:53;;;;;;;14.03;6.57;;;;;;;19.82;38.88;101774.01;;;;-50
2020/01/02 13:41:54;;;;;;;8.50;5.99;;;;;;;19.81;38.77;101770.59;;;;-51
2020/01/02 13:44:54;;;;;;;7.69;6.07;;;;;;;19.80;38.80;101774.40;;;;-48
2020/01/02 13:47:53;;;;;;;10.05;6.21;;;;;;;19.81;38.73;101770.31;;;;-49
2020/01/02 13:50:53;;;;;;;10.64;6.10;;;;;;;19.81;38.74;101766.57;;;;-58
2020/01/02 13:53:53;;;;;;;13.35;6.59;;;;;;;19.84;39.71;101774.70;;;;-48
2020/01/02 13:56:53;;;;;;;12.64;6.59;;;;;;;19.85;39.82;101772.27;;;;-51
2020/01/02 13:59:54;;;;;;;12.23;6.06;;;;;;;19.85;39.36;101772.59;;;;-47
2020/01/02 14:02:54;;;;;;;16.48;7.06;;;;;;;19.85;39.25;101769.39;;;;-48
2020/01/02 14:08:53;;;;;;;9.25;6.31;;;;;;;19.87;39.11;101761.49;;;;-50
2020/01/02 14:11:53;;;;;;;11.83;6.43;;;;;;;19.86;39.19;101759.64;;;;-50
2020/01/02 14:14:53;;;;;;;15.05;8.53;;;;;;;19.80;38.04;101752.10;;;;-56
2020/01/02 14:17:53;;;;;;;13.11;7.55;;;;;;;19.81;38.04;101747.53;;;;-56
2020/01/02 14:20:54;;;;;;;9.29;7.29;;;;;;;19.81;38.48;101736.80;;;;-54
2020/01/02 14:23:54;;;;;;;13.85;7.23;;;;;;;19.82;38.79;101733.61;;;;-52
2020/01/02 14:26:53;;;;;;;12.95;6.97;;;;;;;19.81;38.74;101728.02;;;;-51
2020/01/02 14:29:53;;;;;;;10.16;7.17;;;;;;;19.83;38.61;101720.98;;;;-51
2020/01/02 14:32:53;;;;;;;11.84;6.95;;;;;;;19.82;38.33;101714.34;;;;-49
2020/01/02 14:35:54;;;;;;;11.25;7.62;;;;;;;19.81;38.28;101717.36;;;;-53
2020/01/02 14:38:54;;;;;;;10.52;7.27;;;;;;;19.82;38.49;101723.44;;;;-50
2020/01/02 14:41:54;;;;;;;9.98;6.83;;;;;;;19.82;38.56;101722.22;;;;-45
2020/01/02 14:44:53;;;;;;;8.77;6.41;;;;;;;19.84;38.68;101728.61;;;;-46
2020/01/02 14:47:53;;;;;;;8.91;6.52;;;;;;;19.85;38.79;101730.91;;;;-46
2020/01/02 14:50:53;;;;;;;10.63;6.59;;;;;;;19.86;38.86;101726.20;;;;-47
2020/01/02 14:53:53;;;;;;;9.35;6.55;;;;;;;19.86;38.84;101728.13;;;;-47
2020/01/02 14:56:54;;;;;;;12.33;7.15;;;;;;;19.85;38.42;101725.48;;;;-47
2020/01/02 14:59:54;;;;;;;8.93;6.68;;;;;;;19.83;38.40;101726.87;;;;-48
2020/01/02 15:02:53;;;;;;;8.91;6.33;;;;;;;19.84;38.38;101724.14;;;;-51
2020/01/02 15:05:53;;;;;;;10.57;6.31;;;;;;;19.81;38.48;101723.72;;;;-44
2020/01/02 15:08:53;;;;;;;14.66;7.27;;;;;;;19.79;37.93;101720.36;;;;-46
2020/01/02 15:11:53;;;;;;;14.67;8.29;;;;;;;19.78;37.75;101723.80;;;;-45
2020/01/02 15:14:54;;;;;;;12.73;8.25;;;;;;;19.78;37.60;101720.95;;;;-49
2020/01/02 15:17:54;;;;;;;11.79;8.29;;;;;;;19.80;37.46;101720.08;;;;-49
2020/01/02 15:20:53;;;;;;;9.59;7.37;;;;;;;19.80;37.83;101708.52;;;;-43
2020/01/02 15:23:53;;;;;;;9.85;7.12;;;;;;;19.82;38.02;101716.69;;;;-44
2020/01/02 15:26:53;;;;;;;8.51;7.21;;;;;;;19.84;38.43;101722.91;;;;-44
2020/01/02 15:29:54;;;;;;;11.00;7.36;;;;;;;19.86;38.70;101713.31;;;;-47
2020/01/02 15:32:53;;;;;;;11.95;6.99;;;;;;;19.88;38.81;101710.92;;;;-45
2020/01/02 15:35:53;;;;;;;11.50;6.98;;;;;;;19.91;38.99;101709.20;;;;-47
2020/01/02 15:38:53;;;;;;;11.73;6.78;;;;;;;19.97;39.54;101710.31;;;;-47
2020/01/02 15:41:53;;;;;;;14.99;7.33;;;;;;;19.96;38.90;101714.61;;;;-47
2020/01/02 15:44:53;;;;;;;11.14;7.21;;;;;;;19.98;39.23;101715.36;;;;-47
2020/01/02 15:47:53;;;;;;;10.71;6.78;;;;;;;19.97;39.16;101705.45;;;;-47
2020/01/02 15:50:53;;;;;;;14.55;6.88;;;;;;;19.96;39.22;101706.79;;;;-49
2020/01/02 15:53:54;;;;;;;9.25;7.24;;;;;;;19.96;39.08;101706.34;;;;-45
2020/01/02 15:56:53;;;;;;;12.26;6.92;;;;;;;19.97;39.27;101695.83;;;;-46
2020/01/02 15:59:53;;;;;;;10.13;7.88;;;;;;;19.97;38.84;101696.05;;;;-54
2020/01/02 16:02:53;;;;;;;12.82;7.85;;;;;;;19.96;38.47;101696.78;;;;-49
2020/01/02 16:05:53;;;;;;;10.48;7.31;;;;;;;19.97;38.59;101692.20;;;;-57
2020/01/02 16:08:53;;;;;;;10.75;7.50;;;;;;;19.96;38.35;101694.72;;;;-57
2020/01/02 16:11:54;;;;;;;11.59;7.24;;;;;;;19.95;38.28;101706.56;;;;-57
2020/01/02 16:14:53;;;;;;;8.27;6.64;;;;;;;19.94;38.28;101709.34;;;;-57
2020/01/02 16:17:53;;;;;;;8.50;6.70;;;;;;;19.92;38.21;101713.02;;;;-57
2020/01/02 16:20:53;;;;;;;9.59;7.12;;;;;;;19.91;38.17;101709.59;;;;-57
2020/01/02 16:23:53;;;;;;;8.48;6.86;;;;;;;19.89;38.25;101711.83;;;;-57
2020/01/02 16:26:53;;;;;;;8.43;6.96;;;;;;;19.89;38.16;101709.80;;;;-56
2020/01/02 16:29:54;;;;;;;10.10;6.70;;;;;;;19.86;38.15;101708.22;;;;-57
2020/01/02 16:32:53;;;;;;;8.37;6.77;;;;;;;19.86;38.13;101710.06;;;;-57
2020/01/02 16:35:53;;;;;;;8.39;6.87;;;;;;;19.85;38.13;101711.72;;;;-57
2020/01/02 16:41:58;;;;;;;8.44;6.67;;;;;;;19.84;38.05;101710.00;;;;-58
2020/01/02 16:44:54;;;;;;;7.27;6.47;;;;;;;19.82;38.02;101707.02;;;;-57
2020/01/02 16:47:53;;;;;;;7.83;6.73;;;;;;;19.82;38.05;101712.89;;;;-57
2020/01/02 16:50:53;;;;;;;8.78;6.86;;;;;;;19.80;38.13;101707.16;;;;-56
2020/01/02 16:53:53;;;;;;;8.27;6.66;;;;;;;19.79;38.07;101704.59;;;;-50
2020/01/02 16:56:53;;;;;;;7.09;6.04;;;;;;;19.79;38.06;101711.30;;;;-52